Ashfield, MA

4:47 AM EST on November 19, 2019 (GMT -0500)
Bear Swamp Orchard | | Change Station
Active Advisory: Winter Weather Advisory

Elev 1500 ft 42.55 °N, 72.83 °W | Updated 13 seconds ago

Rain
Rain
34.7 °F
Feels Like 35 °F
N
0
Wind Variable Wind from ESE
Gusts 0.0 mph

Today
High -- | Low -- °F
--% Chance of Precip.
Yesterday
High -- | Low -- °F
Precip. -- in
Pressure 29.70 in
Visibility 5.0 miles
Clouds Scattered Clouds 400 ft
Scattered Clouds 2800 ft
Overcast 3700 ft
Windchill 35 °F
Dew Point 34 °F
Humidity 97%
Rainfall 0.27 in
Snow Depth Not available.
6:47 AM 4:25 PM
Waning Gibbous, 55% visible
SPECI KAQW 190904Z AUTO 00000KT 5SM -RA BR SCT004 SCT028 OVC037 01/M01 A2970 RMK AO2 P0002 T00061006 TSNO
Pressure 29.70 in
Visibility 5.0 miles
Clouds Scattered Clouds 400 ft
Scattered Clouds 2800 ft
Overcast 3700 ft
Windchill 35 °F
Dew Point 34 °F
Humidity 97%
Rainfall 0.27 in
Snow Depth Not available.
6:47 AM 4:25 PM
Waning Gibbous, 55% visible
SPECI KAQW 190904Z AUTO 00000KT 5SM -RA BR SCT004 SCT028 OVC037 01/M01 A2970 RMK AO2 P0002 T00061006 TSNO

Get Your Daily Forecast Email!

Thanks for signing up!

Be on the lookout for a verification email in your inbox.

You'll start receiving severe weather alerts in your inbox..

×

10-Day Weather Forecast

Almanac

Astronomy

Nov. 19, 2019 Rise Set
Actual Time
Civil Twilight
Nautical Twilight
Astronomical Twilight
Moon
Length of Visible Light
Length of Day
Tomorrow will be .
, % of the Moon is Illuminated

Today's Extremes

State Highs State Lows

Community

WunderPhotos

Category 6

Welcome to Category 6. This is the collective home for Weather Underground's featured writeups by Dr. Jeff Masters (right), Bob Henson (left), Chris Burt, and other regular contributors.

Nearby

Air Quality

  Air Quality AQ Index Pollutant
Not available.

Snow Depth

Station Depth Elevation

Earthquake Activity

City Distance Mag. Time & Date
Minimum magnitude displayed is 2.5.

Coastal Water Temperatures

Place Temperature

Stations

Nearby Weather Stations

Station Location Temp. Windchill Dew Point Humidity Wind Precip. Elev Updated Type
                   

Watches & Warnings

Winter Weather Advisory
Issued: 3:17 AM EST Nov. 19, 2019 – National Weather Service

... Winter Weather Advisory remains in effect until 6 am EST early
this morning...

* what... mixed precipitation expected. Rain will change to a brief
period of light freezing rain, ending as a period of sleet and
wet snow. Total ice accumulations around a trace to a couple
hundreths of an inch, with combined wet snow/sleet
accumulations of up to an inch.

* Where... western Hampshire and western Franklin counties.

* When... until 6 am EST Tuesday.

* Impacts... plan on slippery Road conditions. The hazardous
conditions could impact the morning commute.

Precautionary/preparedness actions...

Slow down and use caution while traveling.